Time;durP1;ratioP1;P1;durP2;ratioP2;P2;SDS_P1;SDS_P2;PMS_P1;PMS_P2;Temp;Humidity;BMP_temperature;BMP_pressure;BME280_temperature;BME280_humidity;BME280_pressure;Samples;Min_cycle;Max_cycle;Signal;HPM_P1;HPM_P2
2022/07/23 00:03:54;;;;;;;10.80;6.63;;;;;;;22.40;64.86;99652.06;12182266;19;20444;-81
2022/07/23 00:07:55;;;;;;;10.57;6.88;;;;;;;22.37;65.79;99659.22;12211088;19;20019;-82
2022/07/23 00:11:57;;;;;;;8.52;6.30;;;;;;;22.32;65.65;99664.16;12197403;19;20027;-80
2022/07/23 00:15:59;;;;;;;9.95;6.90;;;;;;;22.25;66.24;99685.13;12199195;19;20070;-80
2022/07/23 00:20:00;;;;;;;8.98;6.28;;;;;;;22.27;66.83;99688.41;12214619;19;20539;-82
2022/07/23 00:24:02;;;;;;;9.00;5.73;;;;;;;22.30;66.67;99698.97;12175351;19;20704;-81
2022/07/23 00:28:04;;;;;;;8.50;6.30;;;;;;;22.32;66.32;99695.84;12202224;19;20542;-80
2022/07/23 00:32:06;;;;;;;8.23;6.10;;;;;;;22.30;67.20;99690.56;12203287;19;20646;-80
2022/07/23 00:36:07;;;;;;;9.35;5.68;;;;;;;22.32;67.28;99666.97;12170951;19;20077;-82
2022/07/23 00:40:10;;;;;;;10.20;6.43;;;;;;;22.33;68.25;99623.69;12196585;19;19999;-81
2022/07/23 00:44:20;;;;;;;8.40;6.22;;;;;;;22.15;69.43;99615.28;12191521;19;20471;-79
2022/07/23 00:48:21;;;;;;;8.95;6.95;;;;;;;21.83;72.02;99620.25;12176200;19;20018;-78
2022/07/23 00:52:23;;;;;;;11.60;7.30;;;;;;;21.59;73.76;99622.69;12207699;19;20385;-79
2022/07/23 00:56:25;;;;;;;12.05;6.72;;;;;;;21.53;74.88;99655.66;12192792;19;20086;-81
2022/07/23 01:00:28;;;;;;;11.15;6.90;;;;;;;21.45;74.60;99658.47;12178454;19;20015;-77
2022/07/23 01:04:29;;;;;;;10.65;6.47;;;;;;;21.38;75.58;99673.75;12192858;19;20006;-79
2022/07/23 01:08:31;;;;;;;11.53;7.57;;;;;;;21.37;75.95;99700.16;12202726;19;20362;-79
2022/07/23 01:12:33;;;;;;;14.43;7.40;;;;;;;21.37;75.16;99700.16;12174385;19;20006;-78
2022/07/23 01:16:35;;;;;;;10.23;6.60;;;;;;;21.36;78.34;99711.69;12199692;19;20038;-77
2022/07/23 01:20:37;;;;;;;10.40;7.50;;;;;;;21.35;78.06;99718.41;12205452;19;20006;-80
2022/07/23 01:24:40;;;;;;;11.60;6.65;;;;;;;21.25;80.03;99711.13;12174336;19;20029;-81
2022/07/23 01:28:42;;;;;;;11.52;7.55;;;;;;;21.17;82.65;99697.91;12204722;19;20024;-79
2022/07/23 01:32:43;;;;;;;9.45;7.38;;;;;;;21.02;86.07;99664.72;12188117;19;20028;-77
2022/07/23 01:36:46;;;;;;;11.65;8.27;;;;;;;20.87;88.25;99672.38;12175121;19;20007;-77
2022/07/23 01:40:50;;;;;;;11.38;8.25;;;;;;;20.68;91.95;99674.59;12189006;19;20610;-77
2022/07/23 01:44:57;;;;;;;12.27;8.38;;;;;;;20.52;93.29;99692.91;12191585;19;20035;-77
2022/07/23 01:48:59;;;;;;;11.65;7.57;;;;;;;20.38;96.16;99684.59;12179392;19;20009;-76
2022/07/23 01:53:19;;;;;;;12.63;8.70;;;;;;;20.24;97.95;99679.88;12196970;19;20014;-77
2022/07/23 01:57:22;;;;;;;11.68;8.25;;;;;;;20.17;98.25;99682.28;12174916;19;20029;-75
2022/07/23 02:01:24;;;;;;;12.95;8.15;;;;;;;20.13;99.31;99660.84;12201834;19;20047;-77
2022/07/23 02:05:28;;;;;;;13.37;8.40;;;;;;;20.08;99.93;99674.94;12198397;19;20134;-77
2022/07/23 02:09:30;;;;;;;11.90;7.80;;;;;;;20.04;99.50;99700.75;12184440;19;20007;-76
2022/07/23 02:13:32;;;;;;;12.60;8.23;;;;;;;20.03;98.42;99718.69;12188260;19;19999;-75
2022/07/23 02:17:34;;;;;;;;;;;;;;;20.06;100.00;99710.81;12197147;19;20015;-77
2022/07/23 02:21:36;;;;;;;12.85;8.35;;;;;;;20.02;99.35;99719.84;12175561;19;19919;-76
2022/07/23 02:25:38;;;;;;;10.75;8.02;;;;;;;19.95;100.00;99708.25;12192289;19;20013;-77
2022/07/23 02:29:39;;;;;;;14.27;9.00;;;;;;;19.93;100.00;99690.97;12181509;19;20009;-77
2022/07/23 02:33:41;;;;;;;13.40;8.30;;;;;;;19.91;100.00;99681.25;12175984;19;20470;-75
2022/07/23 02:37:43;;;;;;;13.02;8.15;;;;;;;19.87;100.00;99695.03;12200710;19;20015;-76
2022/07/23 02:41:45;;;;;;;14.18;8.60;;;;;;;19.87;100.00;99681.03;12189059;19;20009;-77
2022/07/23 02:45:46;;;;;;;13.20;8.32;;;;;;;19.89;100.00;99689.09;12177353;19;20022;-76
2022/07/23 02:49:48;;;;;;;16.88;8.68;;;;;;;19.91;100.00;99696.03;12222765;19;20101;-78
2022/07/23 02:53:50;;;;;;;14.25;8.45;;;;;;;19.81;100.00;99662.75;12199454;19;20031;-79
2022/07/23 02:57:52;;;;;;;15.10;8.27;;;;;;;19.75;100.00;99678.78;12174840;19;20729;-80
2022/07/23 03:01:53;;;;;;;13.37;8.60;;;;;;;19.61;100.00;99705.09;12205100;19;20022;-79
2022/07/23 03:05:56;;;;;;;13.07;8.57;;;;;;;19.54;100.00;99717.53;12206920;19;20070;-78
2022/07/23 03:09:58;;;;;;;12.80;9.20;;;;;;;19.46;100.00;99703.44;12185386;19;20014;-79
2022/07/23 03:13:59;;;;;;;14.25;9.35;;;;;;;19.42;100.00;99699.59;12204989;19;20010;-79
2022/07/23 03:18:01;;;;;;;13.82;10.27;;;;;;;19.41;100.00;99686.78;12189327;19;20035;-79
2022/07/23 03:22:04;;;;;;;17.17;9.45;;;;;;;19.34;100.00;99688.03;12211910;19;20097;-78
2022/07/23 03:26:06;;;;;;;16.35;9.73;;;;;;;19.29;100.00;99716.06;12201463;19;20006;-78
2022/07/23 03:30:08;;;;;;;15.50;9.93;;;;;;;19.28;100.00;99747.94;12187506;19;20385;-78
2022/07/23 03:34:10;;;;;;;16.60;10.20;;;;;;;19.28;100.00;99744.31;12200645;19;20087;-78
2022/07/23 03:38:12;;;;;;;16.13;10.00;;;;;;;19.26;100.00;99754.97;12198991;19;20304;-79
2022/07/23 03:42:14;;;;;;;13.82;9.55;;;;;;;19.21;100.00;99749.47;12180841;19;20022;-79
2022/07/23 03:46:16;;;;;;;16.33;9.77;;;;;;;19.20;100.00;99759.00;12209932;19;20002;-78
2022/07/23 03:50:17;;;;;;;16.65;9.85;;;;;;;19.21;100.00;99753.09;12207409;19;20472;-79
2022/07/23 03:54:19;;;;;;;14.98;9.70;;;;;;;19.15;100.00;99747.91;12183428;19;20002;-78
2022/07/23 03:58:21;;;;;;;14.25;9.30;;;;;;;19.09;100.00;99756.38;12215610;19;20767;-78
2022/07/23 04:02:22;;;;;;;15.07;9.52;;;;;;;19.09;100.00;99755.56;12196124;19;20010;-79
2022/07/23 04:06:24;;;;;;;14.70;9.17;;;;;;;19.10;100.00;99757.25;12172520;19;20010;-78
2022/07/23 04:10:28;;;;;;;13.93;9.52;;;;;;;19.07;100.00;99744.72;12202392;19;20011;-79
2022/07/23 04:14:29;;;;;;;13.75;9.60;;;;;;;19.08;100.00;99753.91;12191736;19;20014;-79
2022/07/23 04:18:32;;;;;;;16.23;9.10;;;;;;;19.08;100.00;99765.91;12182956;19;20007;-78
2022/07/23 04:22:53;;;;;;;15.60;9.70;;;;;;;19.03;100.00;99774.38;12197276;19;20031;-78
2022/07/23 04:26:56;;;;;;;17.02;9.82;;;;;;;19.02;100.00;99778.31;12196230;19;20024;-77
2022/07/23 04:30:58;;;;;;;14.40;10.27;;;;;;;19.03;100.00;99785.53;12172628;19;20487;-79
2022/07/23 04:35:00;;;;;;;;;;;;;;;19.04;100.00;99792.81;12202489;19;20034;-77
2022/07/23 04:39:02;;;;;;;19.00;9.60;;;;;;;19.12;100.00;99794.03;12191804;19;19911;-79
2022/07/23 04:43:05;;;;;;;;;;;;;;;19.25;100.00;99806.41;12200981;19;20007;-76
2022/07/23 04:47:10;;;;;;;14.35;8.85;;;;;;;19.31;100.00;99825.56;12202942;19;19911;-78
2022/07/23 04:51:16;;;;;;;11.98;8.57;;;;;;;19.38;100.00;99841.06;12181969;19;20015;-77
2022/07/23 04:55:18;;;;;;;13.23;8.27;;;;;;;19.46;100.00;99855.19;12200899;19;20366;-78
2022/07/23 04:59:19;;;;;;;13.70;9.05;;;;;;;19.50;100.00;99839.44;12200572;19;20007;-77
2022/07/23 05:03:26;;;;;;;14.65;9.43;;;;;;;19.49;100.00;99837.78;12180423;19;20003;-76
2022/07/23 05:07:27;;;;;;;13.33;8.77;;;;;;;19.52;100.00;99839.97;12197460;19;20063;-78
2022/07/23 05:11:30;;;;;;;13.88;8.55;;;;;;;19.55;100.00;99833.75;12201736;19;20011;-78
2022/07/23 05:15:33;;;;;;;15.38;8.73;;;;;;;19.56;100.00;99827.00;12179368;19;20018;-77
2022/07/23 05:19:35;;;;;;;14.32;8.60;;;;;;;19.56;100.00;99817.81;12207157;19;20069;-76
2022/07/23 05:23:37;;;;;;;13.88;9.20;;;;;;;19.53;100.00;99824.84;12194000;19;20006;-77
2022/07/23 05:27:39;;;;;;;13.23;9.27;;;;;;;19.45;100.00;99828.34;12166889;19;20017;-78
2022/07/23 05:31:41;;;;;;;14.18;9.30;;;;;;;19.57;100.00;99845.47;12197882;19;20026;-76
2022/07/23 05:35:43;;;;;;;15.25;8.63;;;;;;;19.70;100.00;99838.25;12193501;19;20465;-76
2022/07/23 05:40:04;;;;;;;12.02;8.05;;;;;;;19.78;100.00;99847.88;12176847;19;20017;-77
2022/07/23 05:44:05;;;;;;;10.40;8.02;;;;;;;19.85;100.00;99853.88;12197956;19;20014;-76
2022/07/23 05:48:10;;;;;;;13.05;8.38;;;;;;;19.99;100.00;99868.69;12182600;19;20007;-78
2022/07/23 05:52:22;;;;;;;15.40;9.45;;;;;;;20.05;100.00;99877.81;12196074;19;20089;-77
2022/07/23 05:56:41;;;;;;;15.50;8.57;;;;;;;20.11;100.00;99884.13;12191385;19;20074;-77
2022/07/23 06:00:43;;;;;;;12.93;8.40;;;;;;;20.21;100.00;99892.31;12177124;19;20054;-78
2022/07/23 06:04:45;;;;;;;10.43;7.75;;;;;;;20.38;100.00;99880.47;12195882;19;20074;-78
2022/07/23 06:09:06;;;;;;;12.95;8.25;;;;;;;20.56;100.00;99873.13;12176352;19;20500;-76
2022/07/23 06:13:09;;;;;;;10.85;7.57;;;;;;;20.71;100.00;99873.56;12191089;19;20007;-76
2022/07/23 06:17:11;;;;;;;11.20;8.10;;;;;;;20.85;100.00;99859.53;12192156;19;20033;-77
2022/07/23 06:21:12;;;;;;;11.38;8.25;;;;;;;20.83;100.00;99863.78;12171214;19;20031;-78
2022/07/23 06:25:34;;;;;;;12.25;8.57;;;;;;;20.84;100.00;99852.25;12195626;19;20010;-76
2022/07/23 06:29:36;;;;;;;10.48;7.80;;;;;;;20.69;99.18;99853.47;12189292;19;20070;-77
2022/07/23 06:33:37;;;;;;;15.50;8.60;;;;;;;20.51;98.98;99850.81;12172835;19;20014;-75
2022/07/23 06:37:39;;;;;;;11.88;8.85;;;;;;;20.36;99.43;99840.78;12180788;19;20019;-77
2022/07/23 06:41:41;;;;;;;11.00;8.20;;;;;;;20.36;99.30;99852.78;12208059;19;20093;-79
2022/07/23 06:45:47;;;;;;;13.88;8.98;;;;;;;20.54;98.65;99862.22;12172723;19;20014;-78
2022/07/23 06:49:50;;;;;;;12.60;8.10;;;;;;;20.60;96.88;99876.94;12198900;19;20031;-77
2022/07/23 06:53:51;;;;;;;13.40;8.07;;;;;;;20.76;94.82;99886.63;12196266;19;20033;-77
2022/07/23 06:57:53;;;;;;;14.65;8.80;;;;;;;20.94;94.20;99887.63;12177691;19;20074;-77
2022/07/23 07:01:57;;;;;;;11.55;8.05;;;;;;;21.03;91.92;99888.50;12192999;19;20015;-79
2022/07/23 07:05:59;;;;;;;14.73;8.65;;;;;;;21.26;91.05;99889.31;12184707;19;20011;-76
2022/07/23 07:10:02;;;;;;;10.75;8.73;;;;;;;21.36;89.20;99891.91;12169109;19;20476;-77
2022/07/23 07:14:04;;;;;;;14.20;7.90;;;;;;;21.60;88.96;99894.34;12184908;19;20021;-77
2022/07/23 07:18:06;;;;;;;10.93;7.85;;;;;;;21.84;85.79;99919.22;12158671;19;20015;-78
2022/07/23 07:22:07;;;;;;;13.95;7.95;;;;;;;22.05;84.24;99913.88;12201398;19;20375;-77
2022/07/23 07:26:09;;;;;;;11.85;8.00;;;;;;;22.36;82.75;99918.59;12191704;19;20482;-77
2022/07/23 07:30:11;;;;;;;13.07;7.95;;;;;;;22.57;80.78;99920.81;12181623;19;20007;-78
2022/07/23 07:34:13;;;;;;;11.23;7.20;;;;;;;22.86;79.24;99923.00;12185417;19;20082;-79
2022/07/23 07:38:18;;;;;;;11.05;7.53;;;;;;;22.95;77.10;99932.28;12203367;19;20007;-80
2022/07/23 07:42:19;;;;;;;12.50;8.30;;;;;;;23.06;76.16;99932.81;12188625;19;20352;-79
2022/07/23 07:46:27;;;;;;;11.23;7.45;;;;;;;23.05;74.70;99948.81;12210438;19;20014;-80
2022/07/23 07:50:29;;;;;;;10.17;7.23;;;;;;;23.16;74.89;99935.28;12207538;19;20022;-77
2022/07/23 07:54:32;;;;;;;13.80;7.47;;;;;;;23.39;72.74;99945.19;12208092;19;20007;-79
2022/07/23 07:58:33;;;;;;;;;;;;;;;23.54;71.71;99951.44;12219670;19;20006;-80
2022/07/23 08:02:42;;;;;;;10.43;7.50;;;;;;;23.69;71.67;99948.09;12226102;19;20369;-79
2022/07/23 08:06:44;;;;;;;12.65;6.88;;;;;;;23.88;70.64;99947.75;12199695;19;20358;-78
2022/07/23 08:10:46;;;;;;;12.43;8.37;;;;;;;24.04;69.94;99950.88;12218772;19;20002;-79
2022/07/23 08:14:48;;;;;;;9.85;6.95;;;;;;;24.02;68.96;99956.81;12208893;19;20480;-78
2022/07/23 08:18:50;;;;;;;11.43;6.78;;;;;;;24.07;68.91;99953.81;12212803;19;20036;-80
2022/07/23 08:22:54;;;;;;;12.67;7.63;;;;;;;23.95;68.09;99953.72;12220464;19;20018;-79
2022/07/23 08:26:56;;;;;;;10.90;7.43;;;;;;;23.77;68.54;99969.81;12216216;19;20107;-79
2022/07/23 08:30:59;;;;;;;14.68;7.55;;;;;;;23.85;68.25;99971.75;12213515;19;20017;-82
2022/07/23 08:35:00;;;;;;;;;;;;;;;24.10;67.23;99978.47;12240196;19;20046;-79
2022/07/23 08:39:03;;;;;;;12.38;7.20;;;;;;;24.24;66.51;99983.06;12255655;19;19950;-76
2022/07/23 08:43:08;;;;;;;11.05;6.97;;;;;;;24.61;65.41;99974.97;12240526;19;20003;-77
2022/07/23 08:47:11;;;;;;;10.68;7.00;;;;;;;24.94;63.80;99970.28;12260493;19;20046;-76
2022/07/23 08:51:13;;;;;;;11.93;7.30;;;;;;;24.95;63.36;99973.91;12241375;19;20043;-78
2022/07/23 08:55:17;;;;;;;12.23;7.68;;;;;;;25.14;61.82;99971.50;12266335;19;20007;-77
2022/07/23 08:59:19;;;;;;;8.90;6.68;;;;;;;25.56;61.35;99973.47;12260331;19;20014;-78
2022/07/23 09:03:24;;;;;;;10.73;6.73;;;;;;;25.65;59.38;99969.38;12226671;19;20013;-79
2022/07/23 09:07:25;;;;;;;12.27;7.43;;;;;;;25.46;58.28;99972.72;12241681;19;20044;-78
2022/07/23 09:11:27;;;;;;;10.30;7.67;;;;;;;25.55;58.49;99963.31;12228780;19;20014;-81
2022/07/23 09:15:29;;;;;;;13.10;7.23;;;;;;;25.73;57.99;99964.81;12208594;19;20026;-79
2022/07/23 09:19:30;;;;;;;14.67;8.07;;;;;;;25.97;57.65;99963.25;12235308;19;20021;-82
2022/07/23 09:23:40;;;;;;;12.47;7.20;;;;;;;26.08;56.68;99962.44;12231845;19;20015;-81
2022/07/23 09:27:45;;;;;;;8.65;6.88;;;;;;;26.10;56.42;99974.22;12198497;19;20031;-82
2022/07/23 09:31:56;;;;;;;11.52;6.88;;;;;;;26.31;55.79;99960.00;12233698;19;20002;-81
2022/07/23 09:35:58;;;;;;;10.27;6.88;;;;;;;26.68;55.07;99962.03;12231856;19;20022;-82
2022/07/23 09:40:16;;;;;;;8.33;6.80;;;;;;;26.76;53.53;99966.72;12196650;19;20006;-80
2022/07/23 09:44:21;;;;;;;9.10;6.95;;;;;;;26.78;52.98;99970.84;12229020;19;20010;-83
2022/07/23 09:48:28;;;;;;;8.73;6.45;;;;;;;26.89;53.23;99970.34;12215946;19;20010;-80
2022/07/23 09:52:34;;;;;;;9.50;7.03;;;;;;;27.31;51.33;99964.38;12237017;19;20042;-81
2022/07/23 09:56:37;;;;;;;7.97;6.93;;;;;;;27.54;50.94;99964.66;12237292;19;20287;-80
2022/07/23 10:00:39;;;;;;;10.57;7.25;;;;;;;27.64;50.28;99959.31;12205715;19;20504;-83
2022/07/23 10:04:41;;;;;;;;;;;;;;;28.06;49.97;99961.69;12223095;19;20018;-83
2022/07/23 10:09:01;;;;;;;10.07;7.28;;;;;;;28.17;49.53;99957.16;12220203;19;20381;-83
2022/07/23 10:13:50;;;;;;;8.80;6.60;;;;;;;27.80;48.42;99965.03;12190536;19;20021;-83
2022/07/23 10:17:53;;;;;;;8.40;7.07;;;;;;;27.77;48.57;99965.72;12224236;19;20011;-84
2022/07/23 10:21:59;;;;;;;11.20;7.70;;;;;;;28.11;48.10;99958.59;12208527;19;20010;-84
2022/07/23 10:26:24;;;;;;;9.38;7.43;;;;;;;28.22;47.09;99953.19;12213414;19;20014;-83
2022/07/23 10:30:45;;;;;;;11.52;7.78;;;;;;;28.63;46.30;99957.50;12184478;19;20413;-83
2022/07/23 10:34:55;;;;;;;10.50;6.85;;;;;;;28.97;44.18;99957.91;12213638;19;20402;-84
2022/07/23 10:39:08;;;;;;;8.70;6.88;;;;;;;28.88;44.21;99951.59;12218956;19;20011;-83
2022/07/23 10:43:16;;;;;;;9.95;7.40;;;;;;;29.13;44.45;99942.88;12202524;19;20014;-84
2022/07/23 10:47:38;;;;;;;10.15;7.60;;;;;;;29.66;43.08;99952.50;12212364;19;20009;-82
2022/07/23 10:52:13;;;;;;;10.93;7.28;;;;;;;29.74;42.24;99942.91;12183226;19;20052;-84
2022/07/23 10:56:15;;;;;;;8.82;7.28;;;;;;;29.35;42.90;99947.78;12213261;19;20006;-84
2022/07/23 11:00:24;;;;;;;12.55;8.75;;;;;;;28.98;42.83;99945.34;12192537;19;20023;-83
2022/07/23 11:05:04;;;;;;;11.15;7.80;;;;;;;29.62;41.91;99940.25;12204387;19;20081;-83
2022/07/23 11:09:26;;;;;;;10.40;7.10;;;;;;;30.17;41.10;99937.22;12206255;19;20030;-83
2022/07/23 11:13:35;;;;;;;10.73;8.18;;;;;;;30.33;40.80;99934.25;12192573;19;20015;-84
2022/07/23 11:17:56;;;;;;;11.68;6.72;;;;;;;30.73;40.30;99938.53;12222377;19;20021;-84
2022/07/23 11:21:58;;;;;;;10.93;7.65;;;;;;;30.87;39.28;99941.63;12201898;19;20010;-85
2022/07/23 11:26:00;;;;;;;9.13;7.55;;;;;;;31.42;38.98;99927.75;12228079;19;20007;-83
2022/07/23 11:30:02;;;;;;;9.07;7.35;;;;;;;31.98;37.43;99937.38;12222735;19;20003;-83
2022/07/23 11:34:33;;;;;;;8.57;7.55;;;;;;;32.42;36.48;99916.53;12202880;19;20002;-83
2022/07/23 11:38:37;;;;;;;12.38;7.78;;;;;;;31.97;36.85;99925.13;12225451;19;20702;-83
2022/07/23 11:42:51;;;;;;;10.07;7.75;;;;;;;31.21;38.21;99925.44;12187891;19;20031;-84
2022/07/23 11:47:00;;;;;;;10.30;7.82;;;;;;;31.09;37.34;99928.53;12211121;19;20019;-83
2022/07/23 11:51:02;;;;;;;10.38;7.30;;;;;;;30.35;39.51;99909.13;12223526;19;20030;-84
2022/07/23 11:55:08;;;;;;;10.93;7.55;;;;;;;30.41;40.40;99907.59;12188711;19;20085;-84
2022/07/23 11:59:11;;;;;;;10.32;7.85;;;;;;;30.68;39.54;99911.25;12207460;19;20066;-82
2022/07/23 12:03:13;;;;;;;8.35;7.43;;;;;;;30.39;39.07;99907.16;12203279;19;20524;-84
2022/07/23 12:07:32;;;;;;;8.93;7.80;;;;;;;30.73;38.55;99910.94;12209952;19;20006;-82
2022/07/23 12:11:33;;;;;;;10.50;7.22;;;;;;;30.55;38.47;99902.13;12209653;19;20738;-84
2022/07/23 12:15:50;;;;;;;8.02;7.03;;;;;;;30.28;39.28;99889.94;12191291;19;20015;-83
2022/07/23 12:19:52;;;;;;;11.52;7.68;;;;;;;30.32;39.47;99899.34;12210349;19;20007;-84
2022/07/23 12:24:05;;;;;;;13.30;7.85;;;;;;;30.04;39.82;99896.78;12209230;19;20011;-83
2022/07/23 12:28:17;;;;;;;11.85;8.57;;;;;;;29.72;39.77;99899.06;12182152;19;20015;-83
2022/07/23 12:43:13;;;;;;;7.75;6.93;;;;;;;33.01;34.88;99882.34;12198510;19;20070;-84
2022/07/23 12:48:14;;;;;;;13.73;7.47;;;;;;;34.97;32.13;99890.31;12209736;19;20013;-85
2022/07/23 12:52:17;;;;;;;8.70;7.75;;;;;;;35.91;30.20;99890.72;12187881;19;20010;-85
2022/07/23 12:56:21;;;;;;;9.13;8.23;;;;;;;36.11;28.75;99888.91;12210561;19;20362;-85
2022/07/23 13:00:23;;;;;;;9.38;7.97;;;;;;;35.10;30.75;99902.16;12194546;19;20010;-84
2022/07/23 13:04:25;;;;;;;8.65;7.75;;;;;;;34.69;30.56;99894.09;12213487;19;20014;-85
2022/07/23 13:08:30;;;;;;;7.82;7.03;;;;;;;33.92;30.75;99885.91;12212687;19;20033;-87
2022/07/23 13:12:32;;;;;;;8.38;7.03;;;;;;;33.45;31.12;99893.53;12186929;19;20469;-84
2022/07/23 13:16:33;;;;;;;;;;;;;;;32.75;32.29;99892.78;12206116;19;20041;-83
2022/07/23 13:20:38;;;;;;;8.07;7.22;;;;;;;32.67;32.21;99899.66;12214191;19;20317;-85
2022/07/23 13:24:40;;;;;;;9.80;7.22;;;;;;;34.61;29.85;99890.41;12218827;19;20017;-84
2022/07/23 13:28:42;;;;;;;8.32;7.30;;;;;;;36.18;27.68;99883.13;12246580;19;20472;-84
2022/07/23 13:32:44;;;;;;;9.90;7.15;;;;;;;37.59;26.03;99884.06;12207899;19;20564;-84
2022/07/23 13:36:46;;;;;;;9.20;7.75;;;;;;;37.87;25.11;99876.25;12186217;19;20066;-84
2022/07/23 13:40:49;;;;;;;8.07;7.28;;;;;;;37.22;25.44;99884.97;12214817;19;20023;-84
2022/07/23 13:44:51;;;;;;;7.80;7.00;;;;;;;37.37;25.84;99876.97;12208688;19;20006;-84
2022/07/23 13:48:52;;;;;;;8.57;7.68;;;;;;;38.44;24.68;99878.22;12194394;19;20011;-86
2022/07/23 13:52:55;;;;;;;8.82;6.93;;;;;;;39.16;24.10;99871.06;12213199;19;20002;-85
2022/07/23 13:56:57;;;;;;;7.95;7.15;;;;;;;39.81;22.62;99885.72;12209711;19;20010;-85
2022/07/23 14:00:59;;;;;;;8.70;7.32;;;;;;;40.65;22.00;99868.75;12192407;19;20082;-85
2022/07/23 14:05:01;;;;;;;8.20;7.25;;;;;;;41.34;20.97;99865.53;12210856;19;20011;-85
2022/07/23 14:09:02;;;;;;;7.75;7.05;;;;;;;41.65;20.77;99868.72;12219787;19;20006;-85
2022/07/23 14:13:05;;;;;;;8.00;7.18;;;;;;;41.82;20.49;99857.81;12185045;19;20021;-84
2022/07/23 14:17:08;;;;;;;8.27;7.38;;;;;;;40.95;21.26;99863.78;12207490;19;20002;-84
2022/07/23 14:21:11;;;;;;;8.05;7.15;;;;;;;40.37;22.49;99857.94;12209906;19;20011;-84
2022/07/23 14:25:13;;;;;;;8.18;7.38;;;;;;;40.46;20.80;99861.84;12186837;19;20054;-83
2022/07/23 14:29:15;;;;;;;7.57;6.80;;;;;;;40.80;21.29;99859.69;12203689;19;20007;-82
2022/07/23 14:33:17;;;;;;;9.85;7.10;;;;;;;41.35;20.86;99857.66;12188916;19;20014;-84
2022/07/23 14:37:19;;;;;;;7.38;6.68;;;;;;;41.26;20.08;99860.41;12211132;19;20006;-83
2022/07/23 14:41:21;;;;;;;7.20;6.50;;;;;;;41.40;19.68;99848.41;12211284;19;20006;-84
2022/07/23 14:45:29;;;;;;;7.53;6.82;;;;;;;42.03;19.49;99861.31;12198392;19;20011;-86
2022/07/23 14:49:32;;;;;;;8.50;6.78;;;;;;;41.71;18.91;99857.38;12212901;19;20023;-84
2022/07/23 14:53:34;;;;;;;7.65;6.80;;;;;;;41.23;19.21;99853.50;12205249;19;20011;-82
2022/07/23 14:57:35;;;;;;;8.10;7.40;;;;;;;39.73;20.58;99861.16;12187468;19;19999;-82
2022/07/23 15:01:38;;;;;;;9.98;7.38;;;;;;;38.15;22.13;99856.91;12204405;19;20022;-82
2022/07/23 15:05:40;;;;;;;8.52;7.07;;;;;;;36.96;23.29;99870.06;12206844;19;20022;-81
2022/07/23 15:09:41;;;;;;;9.10;7.63;;;;;;;36.18;24.22;99856.50;12198232;19;20006;-83
2022/07/23 15:13:43;;;;;;;9.93;7.22;;;;;;;36.23;23.83;99856.88;12207658;19;20007;-82
2022/07/23 15:17:47;;;;;;;8.95;7.22;;;;;;;36.20;24.28;99857.72;12203548;19;20100;-82
2022/07/23 15:21:51;;;;;;;8.77;7.90;;;;;;;36.16;24.75;99848.31;12185788;19;20039;-82
2022/07/23 15:25:56;;;;;;;7.72;6.97;;;;;;;37.56;22.49;99856.16;12208185;19;20023;-82
2022/07/23 15:29:58;;;;;;;9.05;7.30;;;;;;;36.93;23.27;99852.88;12207862;19;20067;-84
2022/07/23 15:34:00;;;;;;;8.00;7.20;;;;;;;35.89;23.84;99861.63;12193459;19;20023;-82
2022/07/23 15:38:02;;;;;;;8.82;7.95;;;;;;;34.66;25.19;99863.44;12205072;19;20436;-81
2022/07/23 15:42:13;;;;;;;8.83;7.20;;;;;;;33.93;25.89;99856.06;12202388;19;20098;-81
2022/07/23 15:46:35;;;;;;;;;;;;;;;33.25;26.45;99855.09;12182068;19;20015;-82
2022/07/23 15:50:36;;;;;;;12.18;7.25;;;;;;;33.09;26.82;99847.72;12207021;19;19939;-82
2022/07/23 15:54:44;;;;;;;8.15;7.32;;;;;;;32.91;27.81;99838.22;12175940;19;20015;-81
2022/07/23 15:58:46;;;;;;;7.25;6.55;;;;;;;32.63;28.21;99848.28;12213319;19;20075;-83
2022/07/23 16:02:47;;;;;;;;;;;;;;;31.89;28.76;99855.00;12206127;19;20019;-82
2022/07/23 16:06:49;;;;;;;8.70;6.60;;;;;;;31.54;29.25;99864.84;12186035;19;19945;-81
2022/07/23 16:10:51;;;;;;;7.30;6.30;;;;;;;31.53;29.83;99851.81;12203181;19;20299;-81
2022/07/23 16:14:52;;;;;;;9.95;6.32;;;;;;;31.23;30.25;99860.38;12209407;19;20009;-81
2022/07/23 16:18:55;;;;;;;9.88;7.57;;;;;;;30.96;30.75;99865.34;12187794;19;20002;-81
2022/07/23 16:22:57;;;;;;;10.55;7.38;;;;;;;30.52;30.77;99857.41;12203194;19;20492;-81
2022/07/23 16:26:59;;;;;;;8.70;7.80;;;;;;;30.50;30.97;99853.31;12202802;19;20011;-82
2022/07/23 16:31:07;;;;;;;8.55;6.80;;;;;;;30.58;31.35;99857.88;12173542;19;20006;-82
2022/07/23 16:35:10;;;;;;;8.63;6.78;;;;;;;30.52;30.68;99856.56;12198285;19;20106;-82
2022/07/23 16:39:14;;;;;;;9.48;6.80;;;;;;;30.42;30.92;99860.91;12202692;19;20034;-83
2022/07/23 16:43:17;;;;;;;8.25;7.45;;;;;;;30.50;30.49;99853.31;12171979;19;20010;-83
2022/07/23 16:47:19;;;;;;;;;;;;;;;30.54;31.13;99854.16;12205155;19;20062;-82
2022/07/23 16:51:21;;;;;;;;;;;;;;;30.54;30.63;99866.34;12188961;19;19982;-83
2022/07/23 16:55:22;;;;;;;9.32;6.13;;;;;;;30.55;30.58;99855.78;12197815;19;19923;-82
2022/07/23 16:59:24;;;;;;;8.23;6.47;;;;;;;30.37;30.93;99861.22;12202062;19;20070;-82
2022/07/23 17:03:28;;;;;;;9.30;6.63;;;;;;;30.20;31.23;99859.72;12189591;19;20102;-83
2022/07/23 17:07:30;;;;;;;11.20;7.53;;;;;;;30.02;31.39;99859.44;12200941;19;20026;-82
2022/07/23 17:11:31;;;;;;;8.63;7.45;;;;;;;30.09;31.52;99853.84;12257034;19;20018;-82
2022/07/23 17:15:34;;;;;;;8.60;6.45;;;;;;;30.20;31.45;99862.56;12200740;19;20835;-83
2022/07/23 17:19:36;;;;;;;9.20;6.13;;;;;;;30.32;31.56;99862.38;12209742;19;20643;-83
2022/07/23 17:23:38;;;;;;;7.20;6.10;;;;;;;30.33;31.54;99869.69;12202031;19;20078;-82
2022/07/23 17:27:41;;;;;;;10.02;6.60;;;;;;;30.20;31.38;99863.41;12175250;19;20094;-82
2022/07/23 17:31:43;;;;;;;6.68;5.97;;;;;;;30.07;31.00;99869.63;12197275;19;20515;-82
2022/07/23 17:35:45;;;;;;;8.30;6.00;;;;;;;29.90;31.18;99862.47;12188012;19;20011;-82
2022/07/23 17:39:47;;;;;;;10.57;6.50;;;;;;;29.60;31.43;99856.59;12175295;19;20078;-82
2022/07/23 17:43:48;;;;;;;12.55;6.38;;;;;;;29.38;32.16;99867.56;12197864;19;20002;-82
2022/07/23 17:47:50;;;;;;;8.20;6.20;;;;;;;29.19;32.05;99870.44;12198706;19;19998;-82
2022/07/23 17:51:52;;;;;;;8.45;6.20;;;;;;;29.06;32.14;99879.09;12183098;19;20027;-84
2022/07/23 17:55:54;;;;;;;9.40;6.22;;;;;;;29.00;32.45;99876.88;12193242;19;20047;-82
2022/07/23 17:59:56;;;;;;;8.82;5.22;;;;;;;28.96;32.80;99885.31;12203811;19;20034;-83
2022/07/23 18:03:58;;;;;;;8.23;6.07;;;;;;;29.06;33.18;99881.09;12174744;19;20102;-82
2022/07/23 18:08:02;;;;;;;8.43;6.18;;;;;;;29.11;33.03;99885.66;12204312;19;20006;-82
2022/07/23 18:12:04;;;;;;;9.68;6.70;;;;;;;28.97;33.36;99886.13;12200618;19;20007;-83
2022/07/23 18:16:06;;;;;;;6.45;5.38;;;;;;;28.77;33.34;99888.97;12171294;19;20030;-82
2022/07/23 18:20:09;;;;;;;7.85;4.90;;;;;;;28.65;33.10;99885.44;12201677;19;20027;-83
2022/07/23 18:24:10;;;;;;;6.85;5.40;;;;;;;28.47;33.48;99891.53;12198499;19;20115;-83
2022/07/23 18:28:12;;;;;;;7.07;5.53;;;;;;;28.36;33.81;99898.91;12175486;19;20006;-83
2022/07/23 18:32:14;;;;;;;6.95;5.45;;;;;;;28.38;33.32;99900.19;12192789;19;20019;-83
2022/07/23 18:36:17;;;;;;;7.40;4.80;;;;;;;28.29;33.74;99904.38;12187779;19;20003;-83
2022/07/23 18:40:19;;;;;;;6.88;4.70;;;;;;;28.15;33.67;99904.88;12176113;19;20014;-82
2022/07/23 18:44:21;;;;;;;8.18;5.22;;;;;;;27.95;34.23;99904.75;12192344;19;20373;-83
2022/07/23 18:48:22;;;;;;;8.33;4.87;;;;;;;27.67;34.75;99920.97;12186002;19;20018;-83
2022/07/23 18:52:24;;;;;;;6.85;4.57;;;;;;;27.40;35.77;99923.47;12197949;19;20259;-83
2022/07/23 18:56:26;;;;;;;6.15;4.68;;;;;;;27.13;36.22;99929.88;12195227;19;20062;-83
2022/07/23 19:00:35;;;;;;;7.70;4.90;;;;;;;26.88;36.27;99929.97;12181310;19;20492;-83
2022/07/23 19:04:37;;;;;;;9.73;5.13;;;;;;;26.59;37.29;99933.88;12197766;19;20390;-83